Chowchilla, CA (93610)

4:08 PM PDT on July 23, 2016 (GMT -0700)
Berenda Reservoir | | Change Station

Elev 289 ft 37.13 °N, 120.17 °W | Updated 57 seconds ago

Clear
Clear
107.8 °F
Feels Like 100 °F
N
5.0
Wind Variable Wind from NNW
Gusts 10.0 mph

Today
High -- | Low -- °F
--% Chance of Precip.
Yesterday
High -- | Low -- °F
Precip. -- in
Pressure 29.83 in
Visibility 10.0 miles
Clouds Clear
Heat Index 100 °F
Dew Point 22 °F
Humidity 5%
Rainfall 0.00 in
Snow Depth Not available.
5:59 AM 8:15 PM
Waning Gibbous, 82% visible
METAR KMAE 232253Z AUTO 30009KT 10SM CLR 37/08 A2984 RMK AO2 SLP102 T03720078
Pressure 29.83 in
Visibility 10.0 miles
Clouds Clear
Heat Index 100 °F
Dew Point 22 °F
Humidity 5%
Rainfall 0.00 in
Snow Depth Not available.
5:59 AM 8:15 PM
Waning Gibbous, 82% visible
METAR KMAE 232253Z AUTO 30009KT 10SM CLR 37/08 A2984 RMK AO2 SLP102 T03720078

10-Day Weather Forecast

Almanac

Astronomy

Jul. 23, 2016 Rise Set
Actual Time
Civil Twilight
Nautical Twilight
Astronomical Twilight
Moon
Length of Visible Light
Length of Day
Tomorrow will be .
, % of the Moon is Illuminated

Today's Extremes

State Highs State Lows

Community

WunderPhotos

Upload Photos

1,926,956 photos uploaded!

WunderBlog® & News

Nearby

Air Quality

  Air Quality AQ Index Pollutant
Not available.

Snow Depth

Station Depth Elevation

Earthquake Activity

City Distance Mag. Time & Date
Minimum magnitude displayed is 2.5.

Coastal Water Temperatures

Place Temperature

Stations

Nearby Weather Stations

Station Location Temp. Windchill Dew Point Humidity Wind Precip. Elev Updated Type
                   

Watches & Warnings

There are currently no watches in effect.